createdAt,value
2022-08-30T05:42:58.481Z,16.63
2022-08-30T05:48:01.740Z,16.79
2022-08-30T05:53:04.133Z,16.98
2022-08-30T05:58:06.392Z,17.19
2022-08-30T06:03:12.021Z,17.36
2022-08-30T06:08:14.379Z,17.49
2022-08-30T06:13:16.993Z,17.64
2022-08-30T06:18:21.644Z,17.86
2022-08-30T06:23:31.538Z,17.93
2022-08-30T06:28:34.703Z,18.02
2022-08-30T06:33:37.499Z,18.21
2022-08-30T06:38:40.649Z,18.54
2022-08-30T06:43:48.713Z,18.77
2022-08-30T06:48:52.229Z,19.33
2022-08-30T06:53:59.004Z,19.70
2022-08-30T06:59:02.127Z,19.79
2022-08-30T07:04:04.750Z,19.72
2022-08-30T07:09:07.209Z,19.55
2022-08-30T07:14:09.597Z,19.38
2022-08-30T07:19:18.590Z,19.23
2022-08-30T07:24:23.140Z,19.13
2022-08-30T07:29:25.417Z,19.16
2022-08-30T07:34:27.695Z,19.22
2022-08-30T07:39:29.988Z,19.21
2022-08-30T07:44:34.250Z,19.10
2022-08-30T07:49:37.060Z,19.14
2022-08-30T07:54:39.305Z,19.20
2022-08-30T07:59:41.695Z,19.49
2022-08-30T08:04:44.380Z,19.66
2022-08-30T08:09:46.637Z,19.98
2022-08-30T08:14:48.929Z,20.27
2022-08-30T08:19:51.252Z,20.58
2022-08-30T08:24:53.589Z,21.25
2022-08-30T08:29:55.854Z,22.74
2022-08-30T08:34:58.110Z,23.82
2022-08-30T08:40:00.441Z,23.28
2022-08-30T08:45:11.390Z,22.74
2022-08-30T08:50:18.866Z,22.54
2022-08-30T08:55:24.286Z,22.75
2022-08-30T09:00:26.534Z,22.86
2022-08-30T09:05:40.323Z,23.01
2022-08-30T09:11:05.376Z,23.69
2022-08-30T09:16:08.921Z,24.23
2022-08-30T09:21:24.624Z,24.93
2022-08-30T09:26:35.782Z,25.37
2022-08-30T09:32:10.142Z,25.20
2022-08-30T09:37:29.405Z,25.43
2022-08-30T09:42:31.704Z,25.53
2022-08-30T09:47:35.063Z,25.27
2022-08-30T09:52:55.702Z,25.13
2022-08-30T09:58:07.062Z,25.66
2022-08-30T10:03:12.396Z,26.96
2022-08-30T10:08:33.416Z,27.86
2022-08-30T10:13:59.374Z,27.93
2022-08-30T10:19:19.987Z,28.28
2022-08-30T10:24:33.300Z,28.50
2022-08-30T10:29:51.465Z,30.35
2022-08-30T10:35:04.348Z,27.92
2022-08-30T10:40:33.451Z,26.21
2022-08-30T10:45:40.566Z,24.86
2022-08-30T10:50:50.002Z,23.89
2022-08-30T10:55:55.337Z,23.45
2022-08-30T11:01:36.148Z,23.15
2022-08-30T11:06:41.637Z,22.69
2022-08-30T11:12:08.649Z,22.58
2022-08-30T11:17:23.595Z,22.54
2022-08-30T11:22:39.286Z,22.53
2022-08-30T11:27:46.187Z,22.43
2022-08-30T11:33:25.623Z,22.34
2022-08-30T11:38:28.385Z,22.30
2022-08-30T11:43:36.981Z,22.45
2022-08-30T11:49:08.513Z,22.73
2022-08-30T11:54:34.100Z,23.62
2022-08-30T12:00:04.906Z,24.45
2022-08-30T12:05:40.875Z,24.25
2022-08-30T12:10:47.081Z,22.87
2022-08-30T12:15:55.163Z,21.64
2022-08-30T12:21:05.120Z,21.07
2022-08-30T12:26:29.215Z,20.76
2022-08-30T12:31:31.587Z,20.41
2022-08-30T12:36:39.667Z,20.35
2022-08-30T12:41:44.376Z,20.21
2022-08-30T12:46:50.178Z,20.20
2022-08-30T12:51:52.964Z,20.25
2022-08-30T12:57:14.078Z,20.49
2022-08-30T13:02:41.802Z,20.64
2022-08-30T13:07:45.619Z,20.99
2022-08-30T13:13:04.659Z,21.45
2022-08-30T13:18:27.712Z,21.74
2022-08-30T13:23:29.954Z,22.25
2022-08-30T13:28:58.722Z,24.63
2022-08-30T13:34:02.481Z,25.87
2022-08-30T13:39:05.957Z,25.73
2022-08-30T13:44:11.887Z,26.12
2022-08-30T13:49:43.808Z,25.57
2022-08-30T13:54:50.002Z,26.84
2022-08-30T13:59:52.650Z,27.46
2022-08-30T14:04:56.880Z,27.97
2022-08-30T14:15:24.762Z,27.00
2022-08-30T14:20:27.167Z,27.72
2022-08-30T14:25:29.532Z,26.99
2022-08-30T14:30:33.306Z,26.37
2022-08-30T14:35:35.774Z,26.79
2022-08-30T14:40:38.473Z,26.10
2022-08-30T14:45:40.859Z,25.85
2022-08-30T14:50:44.632Z,25.60
2022-08-30T14:55:46.855Z,25.86
2022-08-30T15:00:50.966Z,25.39
2022-08-30T15:05:53.310Z,25.25
2022-08-30T15:10:55.591Z,25.38
2022-08-30T15:15:57.901Z,24.77
2022-08-30T15:21:00.199Z,24.50
2022-08-30T15:26:03.289Z,24.38
2022-08-30T15:31:09.092Z,23.91
2022-08-30T15:36:12.413Z,23.20
2022-08-30T15:41:15.406Z,23.01
2022-08-30T15:46:32.027Z,22.80
2022-08-30T15:51:41.488Z,22.37
2022-08-30T15:56:45.267Z,22.21
2022-08-30T16:01:48.207Z,22.15
2022-08-30T16:06:51.056Z,21.99
2022-08-30T16:11:54.884Z,22.02
2022-08-30T16:16:57.683Z,22.11
2022-08-30T16:22:00.923Z,22.23
2022-08-30T16:27:03.512Z,22.08
2022-08-30T16:32:05.915Z,21.71
2022-08-30T16:37:08.282Z,21.60
2022-08-30T16:42:11.410Z,21.41
2022-08-30T16:47:14.348Z,21.34
2022-08-30T16:52:16.683Z,21.28
2022-08-30T16:57:20.470Z,21.10
2022-08-30T17:02:22.853Z,20.90
2022-08-30T17:07:25.201Z,20.72
2022-08-30T17:12:27.679Z,20.47
2022-08-30T17:17:29.922Z,20.45
2022-08-30T17:22:32.215Z,20.36
2022-08-30T17:27:34.814Z,20.27
2022-08-30T17:32:37.150Z,20.15
2022-08-30T17:37:39.431Z,19.88
2022-08-30T17:42:41.764Z,19.78
2022-08-30T17:47:45.647Z,19.64
2022-08-30T17:52:50.182Z,19.45
2022-08-30T17:57:52.820Z,19.32
2022-08-30T18:02:55.996Z,19.25
2022-08-30T18:07:58.401Z,19.06
2022-08-30T18:13:03.112Z,18.94
2022-08-30T18:18:05.455Z,18.70
2022-08-30T18:23:07.846Z,18.56
2022-08-30T18:28:16.145Z,18.49
2022-08-30T18:33:19.939Z,18.43
2022-08-30T18:38:24.021Z,18.30
2022-08-30T18:43:30.841Z,18.20
2022-08-30T18:48:49.073Z,18.09
2022-08-30T18:53:51.523Z,17.94
2022-08-30T18:58:53.789Z,17.81
2022-08-30T19:03:56.056Z,17.75
2022-08-30T19:08:58.462Z,17.72
2022-08-30T19:14:02.108Z,17.59
2022-08-30T19:19:04.481Z,17.54
2022-08-30T19:24:07.820Z,17.44
2022-08-30T19:29:10.576Z,17.43
2022-08-30T19:34:13.256Z,17.30
2022-08-30T19:39:15.693Z,17.21
2022-08-30T19:44:19.933Z,17.20
2022-08-30T19:49:22.539Z,17.07
2022-08-30T19:54:25.239Z,17.00
2022-08-30T19:59:27.549Z,16.92
2022-08-30T20:04:33.514Z,16.89
2022-08-30T20:09:35.784Z,16.81
2022-08-30T20:14:38.157Z,16.82
2022-08-30T20:19:40.588Z,16.72
2022-08-30T20:24:43.865Z,16.58
2022-08-30T20:29:46.622Z,16.54
2022-08-30T20:34:48.933Z,16.55
2022-08-30T20:39:51.315Z,16.49
2022-08-30T20:44:54.216Z,16.41
2022-08-30T20:49:56.532Z,16.27
2022-08-30T20:54:58.804Z,16.13
2022-08-30T21:00:01.612Z,16.01
2022-08-30T21:05:05.366Z,15.85
2022-08-30T21:10:08.052Z,15.70
2022-08-30T21:15:34.138Z,15.61
2022-08-30T21:20:33.338Z,15.57
2022-08-30T21:25:39.198Z,15.61
2022-08-30T21:30:41.980Z,15.50
2022-08-30T21:36:05.817Z,15.55
2022-08-30T21:41:08.049Z,15.41
2022-08-30T21:46:10.849Z,15.37
2022-08-30T21:51:13.317Z,15.34
2022-08-30T21:56:21.737Z,15.22
